sensor_id;sensor_type;location;lat;lon;timestamp;P1;durP1;ratioP1;P2;durP2;ratioP2
20140;SDS011;10231;47.702;9.826;2022-11-20T00:00:48;5.53;;;5.07;;
20140;SDS011;10231;47.702;9.826;2022-11-20T00:03:14;6.00;;;5.50;;
20140;SDS011;10231;47.702;9.826;2022-11-20T00:05:40;6.70;;;6.00;;
20140;SDS011;10231;47.702;9.826;2022-11-20T00:08:05;8.37;;;6.97;;
20140;SDS011;10231;47.702;9.826;2022-11-20T00:10:31;13.50;;;8.70;;
20140;SDS011;10231;47.702;9.826;2022-11-20T00:12:57;12.53;;;8.43;;
20140;SDS011;10231;47.702;9.826;2022-11-20T00:15:23;11.60;;;7.87;;
20140;SDS011;10231;47.702;9.826;2022-11-20T00:17:49;9.00;;;7.50;;
20140;SDS011;10231;47.702;9.826;2022-11-20T00:20:14;9.83;;;6.40;;
20140;SDS011;10231;47.702;9.826;2022-11-20T00:22:40;8.00;;;6.47;;
20140;SDS011;10231;47.702;9.826;2022-11-20T00:25:06;6.10;;;5.43;;
20140;SDS011;10231;47.702;9.826;2022-11-20T00:27:31;5.30;;;4.87;;
20140;SDS011;10231;47.702;9.826;2022-11-20T00:29:57;6.30;;;4.90;;
20140;SDS011;10231;47.702;9.826;2022-11-20T00:32:23;5.17;;;3.93;;
20140;SDS011;10231;47.702;9.826;2022-11-20T00:34:48;3.90;;;3.60;;
20140;SDS011;10231;47.702;9.826;2022-11-20T00:37:14;4.03;;;3.73;;
20140;SDS011;10231;47.702;9.826;2022-11-20T00:39:39;4.27;;;3.90;;
20140;SDS011;10231;47.702;9.826;2022-11-20T00:42:05;4.10;;;3.70;;
20140;SDS011;10231;47.702;9.826;2022-11-20T00:44:30;4.13;;;3.83;;
20140;SDS011;10231;47.702;9.826;2022-11-20T00:46:56;3.80;;;3.50;;
20140;SDS011;10231;47.702;9.826;2022-11-20T00:49:21;3.80;;;3.37;;
20140;SDS011;10231;47.702;9.826;2022-11-20T00:51:47;4.30;;;3.90;;
20140;SDS011;10231;47.702;9.826;2022-11-20T00:54:13;5.00;;;3.83;;
20140;SDS011;10231;47.702;9.826;2022-11-20T00:56:38;4.53;;;3.57;;
20140;SDS011;10231;47.702;9.826;2022-11-20T00:59:05;5.03;;;4.03;;
20140;SDS011;10231;47.702;9.826;2022-11-20T01:01:30;4.23;;;3.80;;
20140;SDS011;10231;47.702;9.826;2022-11-20T01:03:57;3.87;;;3.57;;
20140;SDS011;10231;47.702;9.826;2022-11-20T01:06:25;4.37;;;3.97;;
20140;SDS011;10231;47.702;9.826;2022-11-20T01:08:53;4.13;;;3.83;;
20140;SDS011;10231;47.702;9.826;2022-11-20T01:11:21;4.80;;;4.40;;
20140;SDS011;10231;47.702;9.826;2022-11-20T01:13:50;4.83;;;4.23;;
20140;SDS011;10231;47.702;9.826;2022-11-20T01:16:18;4.50;;;4.10;;
20140;SDS011;10231;47.702;9.826;2022-11-20T01:18:46;4.40;;;4.00;;
20140;SDS011;10231;47.702;9.826;2022-11-20T01:21:16;5.40;;;4.27;;
20140;SDS011;10231;47.702;9.826;2022-11-20T01:23:44;6.10;;;4.17;;
20140;SDS011;10231;47.702;9.826;2022-11-20T01:26:14;4.57;;;4.17;;
20140;SDS011;10231;47.702;9.826;2022-11-20T01:28:41;6.57;;;3.83;;
20140;SDS011;10231;47.702;9.826;2022-11-20T01:31:31;4.57;;;4.10;;
20140;SDS011;10231;47.702;9.826;2022-11-20T01:34:05;5.07;;;4.43;;
20140;SDS011;10231;47.702;9.826;2022-11-20T01:36:33;4.67;;;4.27;;
20140;SDS011;10231;47.702;9.826;2022-11-20T01:39:01;5.00;;;4.60;;
20140;SDS011;10231;47.702;9.826;2022-11-20T01:41:29;5.37;;;4.60;;
20140;SDS011;10231;47.702;9.826;2022-11-20T01:44:16;5.17;;;4.67;;
20140;SDS011;10231;47.702;9.826;2022-11-20T01:49:31;5.83;;;5.23;;
20140;SDS011;10231;47.702;9.826;2022-11-20T01:52:05;6.57;;;5.33;;
20140;SDS011;10231;47.702;9.826;2022-11-20T01:54:47;5.90;;;5.40;;
20140;SDS011;10231;47.702;9.826;2022-11-20T01:57:17;5.53;;;5.00;;
20140;SDS011;10231;47.702;9.826;2022-11-20T01:59:45;5.90;;;5.40;;
20140;SDS011;10231;47.702;9.826;2022-11-20T02:02:24;5.40;;;4.90;;
20140;SDS011;10231;47.702;9.826;2022-11-20T02:04:51;7.13;;;6.00;;
20140;SDS011;10231;47.702;9.826;2022-11-20T02:07:21;6.93;;;5.93;;
20140;SDS011;10231;47.702;9.826;2022-11-20T02:09:48;6.50;;;5.90;;
20140;SDS011;10231;47.702;9.826;2022-11-20T02:12:14;6.87;;;5.73;;
20140;SDS011;10231;47.702;9.826;2022-11-20T02:15:00;7.80;;;6.00;;
20140;SDS011;10231;47.702;9.826;2022-11-20T02:17:26;7.53;;;5.73;;
20140;SDS011;10231;47.702;9.826;2022-11-20T02:19:51;6.60;;;6.00;;
20140;SDS011;10231;47.702;9.826;2022-11-20T02:22:19;5.87;;;5.37;;
20140;SDS011;10231;47.702;9.826;2022-11-20T02:25:06;6.57;;;5.47;;
20140;SDS011;10231;47.702;9.826;2022-11-20T02:27:33;6.37;;;5.87;;
20140;SDS011;10231;47.702;9.826;2022-11-20T02:30:00;6.33;;;5.70;;
20140;SDS011;10231;47.702;9.826;2022-11-20T02:32:33;6.33;;;5.77;;
20140;SDS011;10231;47.702;9.826;2022-11-20T02:37:44;6.20;;;5.60;;
20140;SDS011;10231;47.702;9.826;2022-11-20T02:40:13;6.40;;;5.63;;
20140;SDS011;10231;47.702;9.826;2022-11-20T02:42:39;6.77;;;6.10;;
20140;SDS011;10231;47.702;9.826;2022-11-20T02:45:05;6.13;;;5.53;;
20140;SDS011;10231;47.702;9.826;2022-11-20T02:47:31;6.43;;;5.83;;
20140;SDS011;10231;47.702;9.826;2022-11-20T02:49:57;6.37;;;5.73;;
20140;SDS011;10231;47.702;9.826;2022-11-20T02:52:23;7.50;;;5.20;;
20140;SDS011;10231;47.702;9.826;2022-11-20T02:54:49;6.63;;;5.40;;
20140;SDS011;10231;47.702;9.826;2022-11-20T02:57:14;7.27;;;5.20;;
20140;SDS011;10231;47.702;9.826;2022-11-20T02:59:40;5.93;;;5.20;;
20140;SDS011;10231;47.702;9.826;2022-11-20T03:02:05;6.03;;;5.53;;
20140;SDS011;10231;47.702;9.826;2022-11-20T03:04:31;6.07;;;5.47;;
20140;SDS011;10231;47.702;9.826;2022-11-20T03:06:57;6.87;;;5.50;;
20140;SDS011;10231;47.702;9.826;2022-11-20T03:09:22;7.37;;;5.80;;
20140;SDS011;10231;47.702;9.826;2022-11-20T03:11:48;8.03;;;5.90;;
20140;SDS011;10231;47.702;9.826;2022-11-20T03:14:13;6.57;;;5.83;;
20140;SDS011;10231;47.702;9.826;2022-11-20T03:16:39;6.20;;;5.60;;
20140;SDS011;10231;47.702;9.826;2022-11-20T03:19:05;6.53;;;5.37;;
20140;SDS011;10231;47.702;9.826;2022-11-20T03:21:32;6.87;;;5.20;;
20140;SDS011;10231;47.702;9.826;2022-11-20T03:23:59;7.30;;;5.53;;
20140;SDS011;10231;47.702;9.826;2022-11-20T03:26:25;6.00;;;5.50;;
20140;SDS011;10231;47.702;9.826;2022-11-20T03:28:52;5.40;;;4.90;;
20140;SDS011;10231;47.702;9.826;2022-11-20T03:31:20;6.73;;;5.40;;
20140;SDS011;10231;47.702;9.826;2022-11-20T03:33:47;4.97;;;4.57;;
20140;SDS011;10231;47.702;9.826;2022-11-20T03:36:13;6.00;;;5.43;;
20140;SDS011;10231;47.702;9.826;2022-11-20T03:38:40;5.10;;;4.60;;
20140;SDS011;10231;47.702;9.826;2022-11-20T03:41:25;5.57;;;4.90;;
20140;SDS011;10231;47.702;9.826;2022-11-20T03:43:53;5.47;;;4.87;;
20140;SDS011;10231;47.702;9.826;2022-11-20T03:46:21;5.47;;;4.80;;
20140;SDS011;10231;47.702;9.826;2022-11-20T03:48:47;6.80;;;5.37;;
20140;SDS011;10231;47.702;9.826;2022-11-20T03:51:17;5.03;;;4.20;;
20140;SDS011;10231;47.702;9.826;2022-11-20T03:53:45;5.77;;;4.47;;
20140;SDS011;10231;47.702;9.826;2022-11-20T03:56:12;5.60;;;4.67;;
20140;SDS011;10231;47.702;9.826;2022-11-20T03:58:39;5.00;;;4.50;;
20140;SDS011;10231;47.702;9.826;2022-11-20T04:01:06;5.53;;;5.00;;
20140;SDS011;10231;47.702;9.826;2022-11-20T04:03:34;4.73;;;4.23;;
20140;SDS011;10231;47.702;9.826;2022-11-20T04:06:01;4.83;;;4.40;;
20140;SDS011;10231;47.702;9.826;2022-11-20T04:08:31;5.27;;;4.50;;
20140;SDS011;10231;47.702;9.826;2022-11-20T04:11:07;4.97;;;4.13;;
20140;SDS011;10231;47.702;9.826;2022-11-20T04:13:45;5.03;;;4.63;;
20140;SDS011;10231;47.702;9.826;2022-11-20T04:16:13;5.23;;;4.33;;
20140;SDS011;10231;47.702;9.826;2022-11-20T04:18:39;5.10;;;4.60;;
20140;SDS011;10231;47.702;9.826;2022-11-20T04:21:04;4.63;;;4.23;;
20140;SDS011;10231;47.702;9.826;2022-11-20T04:23:31;4.93;;;4.43;;
20140;SDS011;10231;47.702;9.826;2022-11-20T04:26:03;5.23;;;4.47;;
20140;SDS011;10231;47.702;9.826;2022-11-20T04:28:30;4.73;;;4.20;;
20140;SDS011;10231;47.702;9.826;2022-11-20T04:31:03;4.90;;;3.97;;
20140;SDS011;10231;47.702;9.826;2022-11-20T04:33:30;5.30;;;4.50;;
20140;SDS011;10231;47.702;9.826;2022-11-20T04:35:59;4.43;;;4.03;;
20140;SDS011;10231;47.702;9.826;2022-11-20T04:38:45;5.10;;;4.13;;
20140;SDS011;10231;47.702;9.826;2022-11-20T04:41:13;4.93;;;4.43;;
20140;SDS011;10231;47.702;9.826;2022-11-20T04:43:40;6.37;;;4.27;;
20140;SDS011;10231;47.702;9.826;2022-11-20T04:46:06;6.73;;;4.03;;
20140;SDS011;10231;47.702;9.826;2022-11-20T04:48:31;5.10;;;4.00;;
20140;SDS011;10231;47.702;9.826;2022-11-20T04:50:57;5.13;;;4.57;;
20140;SDS011;10231;47.702;9.826;2022-11-20T04:53:27;4.47;;;4.07;;
20140;SDS011;10231;47.702;9.826;2022-11-20T04:55:58;4.83;;;4.33;;
20140;SDS011;10231;47.702;9.826;2022-11-20T04:58:28;6.63;;;4.90;;
20140;SDS011;10231;47.702;9.826;2022-11-20T05:00:58;4.97;;;4.57;;
20140;SDS011;10231;47.702;9.826;2022-11-20T05:03:37;5.87;;;5.30;;
20140;SDS011;10231;47.702;9.826;2022-11-20T05:06:03;5.50;;;5.00;;
20140;SDS011;10231;47.702;9.826;2022-11-20T05:08:31;4.57;;;4.27;;
20140;SDS011;10231;47.702;9.826;2022-11-20T05:11:03;4.97;;;4.50;;
20140;SDS011;10231;47.702;9.826;2022-11-20T05:13:34;5.53;;;4.43;;
20140;SDS011;10231;47.702;9.826;2022-11-20T05:16:01;4.43;;;3.90;;
20140;SDS011;10231;47.702;9.826;2022-11-20T05:18:31;5.40;;;4.50;;
20140;SDS011;10231;47.702;9.826;2022-11-20T05:20:57;6.43;;;4.50;;
20140;SDS011;10231;47.702;9.826;2022-11-20T05:23:23;6.17;;;5.20;;
20140;SDS011;10231;47.702;9.826;2022-11-20T05:25:51;4.43;;;4.03;;
20140;SDS011;10231;47.702;9.826;2022-11-20T05:28:17;4.27;;;3.97;;
20140;SDS011;10231;47.702;9.826;2022-11-20T05:30:43;5.23;;;3.80;;
20140;SDS011;10231;47.702;9.826;2022-11-20T05:33:08;4.37;;;3.97;;
20140;SDS011;10231;47.702;9.826;2022-11-20T05:35:34;5.17;;;3.83;;
20140;SDS011;10231;47.702;9.826;2022-11-20T05:37:59;4.37;;;3.97;;
20140;SDS011;10231;47.702;9.826;2022-11-20T05:40:25;3.90;;;3.50;;
20140;SDS011;10231;47.702;9.826;2022-11-20T05:42:51;4.73;;;3.67;;
20140;SDS011;10231;47.702;9.826;2022-11-20T05:45:16;4.10;;;3.73;;
20140;SDS011;10231;47.702;9.826;2022-11-20T05:47:42;4.10;;;3.50;;
20140;SDS011;10231;47.702;9.826;2022-11-20T05:50:07;3.33;;;3.03;;
20140;SDS011;10231;47.702;9.826;2022-11-20T05:52:33;3.80;;;3.40;;
20140;SDS011;10231;47.702;9.826;2022-11-20T05:54:58;3.50;;;3.20;;
20140;SDS011;10231;47.702;9.826;2022-11-20T05:57:24;3.30;;;3.10;;
20140;SDS011;10231;47.702;9.826;2022-11-20T05:59:49;3.87;;;3.30;;
20140;SDS011;10231;47.702;9.826;2022-11-20T06:02:15;3.30;;;2.73;;
20140;SDS011;10231;47.702;9.826;2022-11-20T06:04:41;3.33;;;3.03;;
20140;SDS011;10231;47.702;9.826;2022-11-20T06:07:06;3.40;;;3.10;;
20140;SDS011;10231;47.702;9.826;2022-11-20T06:09:32;3.03;;;2.83;;
20140;SDS011;10231;47.702;9.826;2022-11-20T06:11:58;5.23;;;3.20;;
20140;SDS011;10231;47.702;9.826;2022-11-20T06:14:24;2.83;;;2.60;;
20140;SDS011;10231;47.702;9.826;2022-11-20T06:16:50;3.47;;;3.17;;
20140;SDS011;10231;47.702;9.826;2022-11-20T06:19:15;2.93;;;2.73;;
20140;SDS011;10231;47.702;9.826;2022-11-20T06:21:41;3.57;;;3.17;;
20140;SDS011;10231;47.702;9.826;2022-11-20T06:24:08;3.40;;;3.10;;
20140;SDS011;10231;47.702;9.826;2022-11-20T06:26:34;3.00;;;2.80;;
20140;SDS011;10231;47.702;9.826;2022-11-20T06:29:00;3.03;;;2.83;;
20140;SDS011;10231;47.702;9.826;2022-11-20T06:31:25;3.83;;;3.50;;
20140;SDS011;10231;47.702;9.826;2022-11-20T06:33:52;3.00;;;2.77;;
20140;SDS011;10231;47.702;9.826;2022-11-20T06:36:19;3.60;;;3.30;;
20140;SDS011;10231;47.702;9.826;2022-11-20T06:38:46;3.13;;;2.83;;
20140;SDS011;10231;47.702;9.826;2022-11-20T06:41:13;2.90;;;2.70;;
20140;SDS011;10231;47.702;9.826;2022-11-20T06:43:40;3.47;;;2.90;;
20140;SDS011;10231;47.702;9.826;2022-11-20T06:46:06;3.20;;;3.00;;
20140;SDS011;10231;47.702;9.826;2022-11-20T06:48:33;2.80;;;2.60;;
20140;SDS011;10231;47.702;9.826;2022-11-20T06:50:59;3.57;;;2.70;;
20140;SDS011;10231;47.702;9.826;2022-11-20T06:53:27;2.87;;;2.67;;
20140;SDS011;10231;47.702;9.826;2022-11-20T06:55:55;3.37;;;2.87;;
20140;SDS011;10231;47.702;9.826;2022-11-20T06:58:22;4.03;;;2.70;;
20140;SDS011;10231;47.702;9.826;2022-11-20T07:00:48;4.40;;;3.00;;
20140;SDS011;10231;47.702;9.826;2022-11-20T07:03:14;3.10;;;2.90;;
20140;SDS011;10231;47.702;9.826;2022-11-20T07:05:39;4.47;;;3.43;;
20140;SDS011;10231;47.702;9.826;2022-11-20T07:08:05;3.20;;;3.00;;
20140;SDS011;10231;47.702;9.826;2022-11-20T07:10:31;4.70;;;3.20;;
20140;SDS011;10231;47.702;9.826;2022-11-20T07:12:57;3.27;;;2.93;;
20140;SDS011;10231;47.702;9.826;2022-11-20T07:15:23;3.40;;;2.80;;
20140;SDS011;10231;47.702;9.826;2022-11-20T07:17:49;3.60;;;3.30;;
20140;SDS011;10231;47.702;9.826;2022-11-20T07:20:15;3.47;;;2.47;;
20140;SDS011;10231;47.702;9.826;2022-11-20T07:22:41;3.83;;;2.80;;
20140;SDS011;10231;47.702;9.826;2022-11-20T07:25:07;3.10;;;2.90;;
20140;SDS011;10231;47.702;9.826;2022-11-20T07:27:33;3.60;;;2.13;;
20140;SDS011;10231;47.702;9.826;2022-11-20T07:29:59;4.17;;;2.97;;
20140;SDS011;10231;47.702;9.826;2022-11-20T07:32:25;3.90;;;3.10;;
20140;SDS011;10231;47.702;9.826;2022-11-20T07:34:51;2.90;;;2.70;;
20140;SDS011;10231;47.702;9.826;2022-11-20T07:37:17;3.60;;;2.67;;
20140;SDS011;10231;47.702;9.826;2022-11-20T07:39:42;2.80;;;2.70;;
20140;SDS011;10231;47.702;9.826;2022-11-20T07:42:08;3.03;;;2.70;;
20140;SDS011;10231;47.702;9.826;2022-11-20T07:44:34;3.50;;;2.90;;
20140;SDS011;10231;47.702;9.826;2022-11-20T07:47:00;3.23;;;2.40;;
20140;SDS011;10231;47.702;9.826;2022-11-20T07:49:26;3.73;;;2.93;;
20140;SDS011;10231;47.702;9.826;2022-11-20T07:51:52;2.57;;;2.40;;
20140;SDS011;10231;47.702;9.826;2022-11-20T07:54:18;3.63;;;3.30;;
20140;SDS011;10231;47.702;9.826;2022-11-20T07:56:45;5.13;;;2.80;;
20140;SDS011;10231;47.702;9.826;2022-11-20T07:59:10;3.33;;;2.53;;
20140;SDS011;10231;47.702;9.826;2022-11-20T08:01:37;2.80;;;2.60;;
20140;SDS011;10231;47.702;9.826;2022-11-20T08:04:06;3.00;;;2.80;;
20140;SDS011;10231;47.702;9.826;2022-11-20T08:06:31;5.67;;;3.40;;
20140;SDS011;10231;47.702;9.826;2022-11-20T08:08:57;3.00;;;2.80;;
20140;SDS011;10231;47.702;9.826;2022-11-20T08:11:23;3.37;;;3.07;;
20140;SDS011;10231;47.702;9.826;2022-11-20T08:14:07;3.40;;;3.10;;
20140;SDS011;10231;47.702;9.826;2022-11-20T08:16:45;2.90;;;2.47;;
20140;SDS011;10231;47.702;9.826;2022-11-20T08:19:12;3.70;;;2.53;;
20140;SDS011;10231;47.702;9.826;2022-11-20T08:21:42;2.70;;;2.43;;
20140;SDS011;10231;47.702;9.826;2022-11-20T08:24:08;2.57;;;2.37;;
20140;SDS011;10231;47.702;9.826;2022-11-20T08:26:37;3.40;;;2.70;;
20140;SDS011;10231;47.702;9.826;2022-11-20T08:29:04;2.50;;;2.30;;
20140;SDS011;10231;47.702;9.826;2022-11-20T08:31:29;2.27;;;2.17;;
20140;SDS011;10231;47.702;9.826;2022-11-20T08:33:55;3.37;;;2.30;;
20140;SDS011;10231;47.702;9.826;2022-11-20T08:36:21;2.63;;;2.20;;
20140;SDS011;10231;47.702;9.826;2022-11-20T08:38:48;2.20;;;2.00;;
20140;SDS011;10231;47.702;9.826;2022-11-20T08:41:15;2.40;;;2.20;;
20140;SDS011;10231;47.702;9.826;2022-11-20T08:43:56;3.40;;;2.20;;
20140;SDS011;10231;47.702;9.826;2022-11-20T08:46:27;2.97;;;2.70;;
20140;SDS011;10231;47.702;9.826;2022-11-20T08:48:58;2.37;;;2.13;;
20140;SDS011;10231;47.702;9.826;2022-11-20T08:51:24;2.20;;;2.10;;
20140;SDS011;10231;47.702;9.826;2022-11-20T08:53:49;2.17;;;1.97;;
20140;SDS011;10231;47.702;9.826;2022-11-20T08:56:15;2.40;;;2.20;;
20140;SDS011;10231;47.702;9.826;2022-11-20T08:58:41;2.60;;;2.17;;
20140;SDS011;10231;47.702;9.826;2022-11-20T09:01:07;3.87;;;2.37;;
20140;SDS011;10231;47.702;9.826;2022-11-20T09:03:33;3.60;;;2.30;;
20140;SDS011;10231;47.702;9.826;2022-11-20T09:05:59;2.77;;;2.57;;
20140;SDS011;10231;47.702;9.826;2022-11-20T09:08:26;3.93;;;2.43;;
20140;SDS011;10231;47.702;9.826;2022-11-20T09:10:52;3.00;;;2.40;;
20140;SDS011;10231;47.702;9.826;2022-11-20T09:13:19;2.37;;;1.87;;
20140;SDS011;10231;47.702;9.826;2022-11-20T09:15:45;1.83;;;1.73;;
20140;SDS011;10231;47.702;9.826;2022-11-20T09:18:11;1.93;;;1.80;;
20140;SDS011;10231;47.702;9.826;2022-11-20T09:20:37;2.03;;;1.93;;
20140;SDS011;10231;47.702;9.826;2022-11-20T09:23:03;2.27;;;2.10;;
20140;SDS011;10231;47.702;9.826;2022-11-20T09:25:28;3.33;;;2.20;;
20140;SDS011;10231;47.702;9.826;2022-11-20T09:27:54;1.50;;;1.50;;
20140;SDS011;10231;47.702;9.826;2022-11-20T09:30:21;2.20;;;1.97;;
20140;SDS011;10231;47.702;9.826;2022-11-20T09:32:46;2.70;;;2.50;;
20140;SDS011;10231;47.702;9.826;2022-11-20T09:35:12;2.40;;;1.57;;
20140;SDS011;10231;47.702;9.826;2022-11-20T09:37:39;1.80;;;1.70;;
20140;SDS011;10231;47.702;9.826;2022-11-20T09:40:05;1.67;;;1.50;;
20140;SDS011;10231;47.702;9.826;2022-11-20T09:42:32;2.20;;;2.00;;
20140;SDS011;10231;47.702;9.826;2022-11-20T09:50:54;1.90;;;1.80;;
20140;SDS011;10231;47.702;9.826;2022-11-20T09:53:30;1.70;;;1.60;;
20140;SDS011;10231;47.702;9.826;2022-11-20T09:56:00;1.60;;;1.50;;
20140;SDS011;10231;47.702;9.826;2022-11-20T10:01:18;2.40;;;2.30;;
20140;SDS011;10231;47.702;9.826;2022-11-20T10:09:36;3.73;;;3.03;;
20140;SDS011;10231;47.702;9.826;2022-11-20T10:17:51;2.40;;;1.70;;
20140;SDS011;10231;47.702;9.826;2022-11-20T10:20:32;1.97;;;1.87;;
20140;SDS011;10231;47.702;9.826;2022-11-20T10:31:08;2.00;;;1.90;;
20140;SDS011;10231;47.702;9.826;2022-11-20T10:33:39;1.80;;;1.70;;
20140;SDS011;10231;47.702;9.826;2022-11-20T10:36:12;2.10;;;1.60;;
20140;SDS011;10231;47.702;9.826;2022-11-20T10:39:06;1.70;;;1.60;;
20140;SDS011;10231;47.702;9.826;2022-11-20T10:41:42;1.53;;;1.40;;
20140;SDS011;10231;47.702;9.826;2022-11-20T10:44:26;1.50;;;1.40;;
20140;SDS011;10231;47.702;9.826;2022-11-20T10:47:17;1.60;;;1.50;;
20140;SDS011;10231;47.702;9.826;2022-11-20T10:49:45;2.40;;;1.60;;
20140;SDS011;10231;47.702;9.826;2022-11-20T10:55:05;4.23;;;2.20;;
20140;SDS011;10231;47.702;9.826;2022-11-20T10:58:10;1.63;;;1.53;;
20140;SDS011;10231;47.702;9.826;2022-11-20T11:00:41;1.73;;;1.40;;
20140;SDS011;10231;47.702;9.826;2022-11-20T11:03:20;0.87;;;0.87;;
20140;SDS011;10231;47.702;9.826;2022-11-20T11:08:39;1.27;;;1.27;;
20140;SDS011;10231;47.702;9.826;2022-11-20T11:13:47;1.17;;;0.90;;
20140;SDS011;10231;47.702;9.826;2022-11-20T11:16:23;2.10;;;1.13;;
20140;SDS011;10231;47.702;9.826;2022-11-20T11:18:50;1.43;;;0.90;;
20140;SDS011;10231;47.702;9.826;2022-11-20T11:21:21;1.47;;;1.10;;
20140;SDS011;10231;47.702;9.826;2022-11-20T11:23:58;1.30;;;1.20;;
20140;SDS011;10231;47.702;9.826;2022-11-20T11:26:25;1.00;;;1.00;;
20140;SDS011;10231;47.702;9.826;2022-11-20T11:28:59;1.17;;;1.10;;
20140;SDS011;10231;47.702;9.826;2022-11-20T11:31:26;1.30;;;1.20;;
20140;SDS011;10231;47.702;9.826;2022-11-20T11:36:32;0.80;;;0.80;;
20140;SDS011;10231;47.702;9.826;2022-11-20T11:38:59;0.90;;;0.90;;
20140;SDS011;10231;47.702;9.826;2022-11-20T11:41:28;0.93;;;0.93;;
20140;SDS011;10231;47.702;9.826;2022-11-20T11:43:58;1.10;;;1.10;;
20140;SDS011;10231;47.702;9.826;2022-11-20T11:46:54;0.70;;;0.70;;
20140;SDS011;10231;47.702;9.826;2022-11-20T11:49:21;1.30;;;1.20;;
20140;SDS011;10231;47.702;9.826;2022-11-20T11:54:34;3.30;;;1.20;;
20140;SDS011;10231;47.702;9.826;2022-11-20T11:57:13;1.63;;;1.53;;
20140;SDS011;10231;47.702;9.826;2022-11-20T12:02:25;1.67;;;1.13;;
20140;SDS011;10231;47.702;9.826;2022-11-20T12:16:48;0.90;;;0.90;;
20140;SDS011;10231;47.702;9.826;2022-11-20T12:19:15;0.77;;;0.70;;
20140;SDS011;10231;47.702;9.826;2022-11-20T12:43:25;1.20;;;1.10;;
20140;SDS011;10231;47.702;9.826;2022-11-20T12:46:22;2.27;;;1.10;;
20140;SDS011;10231;47.702;9.826;2022-11-20T12:49:07;1.90;;;1.07;;
20140;SDS011;10231;47.702;9.826;2022-11-20T12:54:40;1.40;;;1.30;;
20140;SDS011;10231;47.702;9.826;2022-11-20T13:02:46;1.50;;;1.40;;
20140;SDS011;10231;47.702;9.826;2022-11-20T13:08:02;2.23;;;2.00;;
20140;SDS011;10231;47.702;9.826;2022-11-20T13:10:47;3.13;;;2.90;;
20140;SDS011;10231;47.702;9.826;2022-11-20T13:16:10;3.13;;;1.73;;
20140;SDS011;10231;47.702;9.826;2022-11-20T13:18:49;2.17;;;1.97;;
20140;SDS011;10231;47.702;9.826;2022-11-20T13:21:22;1.33;;;1.17;;
20140;SDS011;10231;47.702;9.826;2022-11-20T13:24:05;1.30;;;1.20;;
20140;SDS011;10231;47.702;9.826;2022-11-20T13:26:31;2.13;;;1.73;;
20140;SDS011;10231;47.702;9.826;2022-11-20T13:29:07;1.57;;;1.30;;
20140;SDS011;10231;47.702;9.826;2022-11-20T13:31:36;2.30;;;2.10;;
20140;SDS011;10231;47.702;9.826;2022-11-20T13:34:09;2.53;;;2.00;;
20140;SDS011;10231;47.702;9.826;2022-11-20T13:36:47;1.80;;;1.60;;
20140;SDS011;10231;47.702;9.826;2022-11-20T13:39:23;2.50;;;1.67;;
20140;SDS011;10231;47.702;9.826;2022-11-20T13:42:20;1.70;;;1.60;;
20140;SDS011;10231;47.702;9.826;2022-11-20T13:44:55;3.40;;;1.87;;
20140;SDS011;10231;47.702;9.826;2022-11-20T13:47:33;2.10;;;1.97;;
20140;SDS011;10231;47.702;9.826;2022-11-20T13:50:00;2.50;;;2.27;;
20140;SDS011;10231;47.702;9.826;2022-11-20T13:52:39;2.63;;;1.60;;
20140;SDS011;10231;47.702;9.826;2022-11-20T14:00:17;3.87;;;2.20;;
20140;SDS011;10231;47.702;9.826;2022-11-20T14:03:08;2.03;;;1.60;;
20140;SDS011;10231;47.702;9.826;2022-11-20T14:05:40;2.17;;;1.60;;
20140;SDS011;10231;47.702;9.826;2022-11-20T14:08:19;1.47;;;1.37;;
20140;SDS011;10231;47.702;9.826;2022-11-20T14:10:50;1.33;;;1.23;;
20140;SDS011;10231;47.702;9.826;2022-11-20T14:13:17;1.53;;;1.20;;
20140;SDS011;10231;47.702;9.826;2022-11-20T14:15:44;1.50;;;1.40;;
20140;SDS011;10231;47.702;9.826;2022-11-20T14:18:15;2.63;;;1.37;;
20140;SDS011;10231;47.702;9.826;2022-11-20T14:20:45;1.83;;;1.40;;
20140;SDS011;10231;47.702;9.826;2022-11-20T14:23:11;1.57;;;1.47;;
20140;SDS011;10231;47.702;9.826;2022-11-20T14:25:37;1.50;;;1.20;;
20140;SDS011;10231;47.702;9.826;2022-11-20T14:28:10;1.73;;;1.40;;
20140;SDS011;10231;47.702;9.826;2022-11-20T14:30:44;2.83;;;1.40;;
20140;SDS011;10231;47.702;9.826;2022-11-20T14:33:12;1.53;;;1.27;;
20140;SDS011;10231;47.702;9.826;2022-11-20T14:35:46;2.30;;;1.30;;
20140;SDS011;10231;47.702;9.826;2022-11-20T14:38:15;2.30;;;1.03;;
20140;SDS011;10231;47.702;9.826;2022-11-20T14:40:43;1.50;;;1.40;;
20140;SDS011;10231;47.702;9.826;2022-11-20T14:43:16;1.30;;;1.20;;
20140;SDS011;10231;47.702;9.826;2022-11-20T14:45:48;1.37;;;1.27;;
20140;SDS011;10231;47.702;9.826;2022-11-20T14:48:24;2.67;;;1.63;;
20140;SDS011;10231;47.702;9.826;2022-11-20T14:50:54;2.40;;;1.50;;
20140;SDS011;10231;47.702;9.826;2022-11-20T14:53:24;1.53;;;1.43;;
20140;SDS011;10231;47.702;9.826;2022-11-20T14:55:57;3.00;;;1.73;;
20140;SDS011;10231;47.702;9.826;2022-11-20T14:58:25;1.50;;;1.40;;
20140;SDS011;10231;47.702;9.826;2022-11-20T15:01:01;3.07;;;2.23;;
20140;SDS011;10231;47.702;9.826;2022-11-20T15:03:38;4.13;;;2.67;;
20140;SDS011;10231;47.702;9.826;2022-11-20T15:06:06;3.43;;;1.90;;
20140;SDS011;10231;47.702;9.826;2022-11-20T15:08:34;4.10;;;1.90;;
20140;SDS011;10231;47.702;9.826;2022-11-20T15:11:03;3.33;;;2.23;;
20140;SDS011;10231;47.702;9.826;2022-11-20T15:13:40;2.30;;;1.53;;
20140;SDS011;10231;47.702;9.826;2022-11-20T15:16:14;1.83;;;1.70;;
20140;SDS011;10231;47.702;9.826;2022-11-20T15:18:43;3.47;;;2.50;;
20140;SDS011;10231;47.702;9.826;2022-11-20T15:21:10;4.97;;;4.00;;
20140;SDS011;10231;47.702;9.826;2022-11-20T15:23:40;5.03;;;3.93;;
20140;SDS011;10231;47.702;9.826;2022-11-20T15:26:10;5.77;;;4.57;;
20140;SDS011;10231;47.702;9.826;2022-11-20T15:28:40;4.97;;;3.40;;
20140;SDS011;10231;47.702;9.826;2022-11-20T15:31:11;4.93;;;3.63;;
20140;SDS011;10231;47.702;9.826;2022-11-20T15:33:38;3.10;;;2.77;;
20140;SDS011;10231;47.702;9.826;2022-11-20T15:36:03;5.10;;;3.17;;
20140;SDS011;10231;47.702;9.826;2022-11-20T15:38:29;7.50;;;4.20;;
20140;SDS011;10231;47.702;9.826;2022-11-20T15:40:55;4.37;;;3.83;;
20140;SDS011;10231;47.702;9.826;2022-11-20T15:43:21;5.37;;;4.27;;
20140;SDS011;10231;47.702;9.826;2022-11-20T15:45:56;6.03;;;4.70;;
20140;SDS011;10231;47.702;9.826;2022-11-20T15:48:26;5.47;;;4.97;;
20140;SDS011;10231;47.702;9.826;2022-11-20T15:53:19;4.30;;;4.00;;
20140;SDS011;10231;47.702;9.826;2022-11-20T15:55:45;5.10;;;4.43;;
20140;SDS011;10231;47.702;9.826;2022-11-20T15:58:13;6.87;;;5.40;;
20140;SDS011;10231;47.702;9.826;2022-11-20T16:00:39;5.17;;;4.67;;
20140;SDS011;10231;47.702;9.826;2022-11-20T16:03:05;4.73;;;4.07;;
20140;SDS011;10231;47.702;9.826;2022-11-20T16:05:30;5.20;;;4.57;;
20140;SDS011;10231;47.702;9.826;2022-11-20T16:07:56;5.77;;;5.27;;
20140;SDS011;10231;47.702;9.826;2022-11-20T16:10:22;7.00;;;5.90;;
20140;SDS011;10231;47.702;9.826;2022-11-20T16:12:48;10.43;;;8.83;;
20140;SDS011;10231;47.702;9.826;2022-11-20T16:15:32;11.00;;;9.37;;
20140;SDS011;10231;47.702;9.826;2022-11-20T16:18:11;10.27;;;7.60;;
20140;SDS011;10231;47.702;9.826;2022-11-20T16:21:02;7.93;;;7.23;;
20140;SDS011;10231;47.702;9.826;2022-11-20T16:23:28;8.20;;;6.90;;
20140;SDS011;10231;47.702;9.826;2022-11-20T16:25:54;7.90;;;7.03;;
20140;SDS011;10231;47.702;9.826;2022-11-20T16:28:19;8.80;;;7.93;;
20140;SDS011;10231;47.702;9.826;2022-11-20T16:30:45;9.83;;;8.83;;
20140;SDS011;10231;47.702;9.826;2022-11-20T16:33:12;13.40;;;11.17;;
20140;SDS011;10231;47.702;9.826;2022-11-20T16:35:42;16.13;;;13.47;;
20140;SDS011;10231;47.702;9.826;2022-11-20T16:38:07;12.90;;;10.50;;
20140;SDS011;10231;47.702;9.826;2022-11-20T16:40:33;8.67;;;7.00;;
20140;SDS011;10231;47.702;9.826;2022-11-20T16:43:09;6.83;;;6.03;;
20140;SDS011;10231;47.702;9.826;2022-11-20T16:45:40;7.23;;;6.20;;